Aviation Digital Data Service (ADDS)

Output produced by METARs form (2208 UTC 23 March 2017)
found at http://aviationweather.gov/adds/metars/
 
KFKL 231720Z 2318/2418 14004KT P6SM SKC 
     FM240700 16008KT P6SM VCSH BKN070 WS020/20040KT 
     FM240900 17008KT 5SM -SHRA OVC040 WS020/22040KT 
     FM241300 19010G18KT P6SM VCSH OVC035 
     FM241500 20010G18KT P6SM BKN025 AMD LTD TO CLD VIS AND WIND